sensor_id;sensor_type;location;lat;lon;timestamp;temperature;humidity
37342;DHT22;58643;49.052;8.518;2022-10-19T05:31:39;14.80;99.90
37342;DHT22;58643;49.052;8.518;2022-10-19T05:34:04;14.40;99.90
37342;DHT22;58643;49.052;8.518;2022-10-19T05:36:35;14.40;99.90
37342;DHT22;58643;49.052;8.518;2022-10-19T05:39:06;14.60;99.90
37342;DHT22;58643;49.052;8.518;2022-10-19T05:41:32;14.50;99.90
37342;DHT22;58643;49.052;8.518;2022-10-19T05:43:59;14.50;99.90
37342;DHT22;58643;49.052;8.518;2022-10-19T05:46:27;14.60;99.90
37342;DHT22;58643;49.052;8.518;2022-10-19T05:48:57;14.60;99.90
37342;DHT22;58643;49.052;8.518;2022-10-19T05:51:24;15.80;99.90
37342;DHT22;58643;49.052;8.518;2022-10-19T05:53:52;15.10;99.90
37342;DHT22;58643;49.052;8.518;2022-10-19T05:56:21;14.50;99.90
37342;DHT22;58643;49.052;8.518;2022-10-19T05:58:47;14.60;99.90
37342;DHT22;58643;49.052;8.518;2022-10-19T06:01:14;15.60;99.90
37342;DHT22;58643;49.052;8.518;2022-10-19T06:03:40;14.60;99.90
37342;DHT22;58643;49.052;8.518;2022-10-19T06:06:07;16.50;99.90
37342;DHT22;58643;49.052;8.518;2022-10-19T06:08:34;16.00;99.90
37342;DHT22;58643;49.052;8.518;2022-10-19T06:11:06;14.70;99.90
37342;DHT22;58643;49.052;8.518;2022-10-19T06:13:32;16.90;99.90
37342;DHT22;58643;49.052;8.518;2022-10-19T06:15:58;16.50;99.90
37342;DHT22;58643;49.052;8.518;2022-10-19T06:18:24;14.70;99.90
37342;DHT22;58643;49.052;8.518;2022-10-19T06:20:50;14.60;99.90
37342;DHT22;58643;49.052;8.518;2022-10-19T06:23:17;14.70;99.90
37342;DHT22;58643;49.052;8.518;2022-10-19T06:25:42;14.80;99.90
37342;DHT22;58643;49.052;8.518;2022-10-19T06:28:08;14.80;99.90
37342;DHT22;58643;49.052;8.518;2022-10-19T06:30:37;14.70;99.90
37342;DHT22;58643;49.052;8.518;2022-10-19T06:33:04;14.80;99.90
37342;DHT22;58643;49.052;8.518;2022-10-19T06:35:29;15.00;99.90
37342;DHT22;58643;49.052;8.518;2022-10-19T06:37:56;14.90;99.90
37342;DHT22;58643;49.052;8.518;2022-10-19T06:40:22;14.90;99.90
37342;DHT22;58643;49.052;8.518;2022-10-19T06:42:48;15.00;99.90
37342;DHT22;58643;49.052;8.518;2022-10-19T06:45:14;16.60;99.90
37342;DHT22;58643;49.052;8.518;2022-10-19T06:47:39;15.10;99.90
37342;DHT22;58643;49.052;8.518;2022-10-19T06:50:05;16.80;99.90
37342;DHT22;58643;49.052;8.518;2022-10-19T06:52:32;15.20;99.90
37342;DHT22;58643;49.052;8.518;2022-10-19T06:54:58;15.60;99.90
37342;DHT22;58643;49.052;8.518;2022-10-19T06:57:24;15.50;99.90
37342;DHT22;58643;49.052;8.518;2022-10-19T06:59:49;16.90;99.90
37342;DHT22;58643;49.052;8.518;2022-10-19T07:02:15;16.80;99.90
37342;DHT22;58643;49.052;8.518;2022-10-19T07:04:40;15.60;99.90
37342;DHT22;58643;49.052;8.518;2022-10-19T07:07:06;16.50;99.90
37342;DHT22;58643;49.052;8.518;2022-10-19T07:09:32;15.90;99.90
37342;DHT22;58643;49.052;8.518;2022-10-19T07:11:58;15.60;99.90
37342;DHT22;58643;49.052;8.518;2022-10-19T07:14:23;16.10;99.90
37342;DHT22;58643;49.052;8.518;2022-10-19T07:16:50;15.90;99.90
37342;DHT22;58643;49.052;8.518;2022-10-19T07:19:16;15.70;99.90
37342;DHT22;58643;49.052;8.518;2022-10-19T07:21:41;15.70;99.90
37342;DHT22;58643;49.052;8.518;2022-10-19T07:24:08;15.60;99.90
37342;DHT22;58643;49.052;8.518;2022-10-19T07:26:34;17.70;99.90
37342;DHT22;58643;49.052;8.518;2022-10-19T07:28:59;17.70;99.90
37342;DHT22;58643;49.052;8.518;2022-10-19T07:31:27;15.90;99.90
37342;DHT22;58643;49.052;8.518;2022-10-19T07:33:59;15.80;99.90
37342;DHT22;58643;49.052;8.518;2022-10-19T07:36:27;16.00;99.90
37342;DHT22;58643;49.052;8.518;2022-10-19T07:38:53;16.30;99.90
37342;DHT22;58643;49.052;8.518;2022-10-19T07:41:20;17.40;99.90
37342;DHT22;58643;49.052;8.518;2022-10-19T07:43:47;16.40;99.90
37342;DHT22;58643;49.052;8.518;2022-10-19T07:46:18;16.80;99.90
37342;DHT22;58643;49.052;8.518;2022-10-19T07:48:44;16.60;99.90
37342;DHT22;58643;49.052;8.518;2022-10-19T07:51:11;16.70;99.90
37342;DHT22;58643;49.052;8.518;2022-10-19T07:53:37;16.50;99.90
37342;DHT22;58643;49.052;8.518;2022-10-19T07:56:05;17.30;99.90
37342;DHT22;58643;49.052;8.518;2022-10-19T07:58:31;16.20;99.90
37342;DHT22;58643;49.052;8.518;2022-10-19T08:01:00;16.00;99.90
37342;DHT22;58643;49.052;8.518;2022-10-19T08:03:26;16.90;99.90
37342;DHT22;58643;49.052;8.518;2022-10-19T08:05:51;17.90;99.90
37342;DHT22;58643;49.052;8.518;2022-10-19T08:08:17;16.30;99.90
37342;DHT22;58643;49.052;8.518;2022-10-19T08:10:42;16.40;99.90
37342;DHT22;58643;49.052;8.518;2022-10-19T08:13:08;17.70;99.90
37342;DHT22;58643;49.052;8.518;2022-10-19T08:15:33;16.20;99.90
37342;DHT22;58643;49.052;8.518;2022-10-19T08:17:59;16.30;99.90
37342;DHT22;58643;49.052;8.518;2022-10-19T08:20:25;16.30;99.90
37342;DHT22;58643;49.052;8.518;2022-10-19T08:22:50;16.00;99.90
37342;DHT22;58643;49.052;8.518;2022-10-19T08:25:16;16.60;99.90
37342;DHT22;58643;49.052;8.518;2022-10-19T08:27:41;17.30;99.90
37342;DHT22;58643;49.052;8.518;2022-10-19T08:30:07;16.40;99.90
37342;DHT22;58643;49.052;8.518;2022-10-19T08:32:33;16.10;99.90
37342;DHT22;58643;49.052;8.518;2022-10-19T08:34:58;17.60;99.90
37342;DHT22;58643;49.052;8.518;2022-10-19T08:37:24;16.80;99.90
37342;DHT22;58643;49.052;8.518;2022-10-19T08:39:50;16.60;99.90
37342;DHT22;58643;49.052;8.518;2022-10-19T08:42:19;17.30;99.90
37342;DHT22;58643;49.052;8.518;2022-10-19T08:47:46;16.50;99.90
37342;DHT22;58643;49.052;8.518;2022-10-19T08:50:19;16.30;99.90
37342;DHT22;58643;49.052;8.518;2022-10-19T08:52:54;16.50;99.90
37342;DHT22;58643;49.052;8.518;2022-10-19T08:55:30;16.50;99.90
37342;DHT22;58643;49.052;8.518;2022-10-19T08:58:17;16.80;99.90
37342;DHT22;58643;49.052;8.518;2022-10-19T09:00:54;16.70;99.90
37342;DHT22;58643;49.052;8.518;2022-10-19T09:08:45;17.10;99.90
37342;DHT22;58643;49.052;8.518;2022-10-19T09:11:11;19.20;99.90
37342;DHT22;58643;49.052;8.518;2022-10-19T09:13:41;17.00;99.90
37342;DHT22;58643;49.052;8.518;2022-10-19T09:16:13;16.70;99.90
37342;DHT22;58643;49.052;8.518;2022-10-19T09:18:39;17.00;99.90
37342;DHT22;58643;49.052;8.518;2022-10-19T09:21:15;17.40;99.90
37342;DHT22;58643;49.052;8.518;2022-10-19T09:26:26;17.20;99.90
37342;DHT22;58643;49.052;8.518;2022-10-19T09:31:38;17.60;99.90
37342;DHT22;58643;49.052;8.518;2022-10-19T09:34:15;17.90;99.90
37342;DHT22;58643;49.052;8.518;2022-10-19T09:36:52;17.60;99.90
37342;DHT22;58643;49.052;8.518;2022-10-19T09:39:18;17.50;99.90
37342;DHT22;58643;49.052;8.518;2022-10-19T09:41:48;19.10;99.90
37342;DHT22;58643;49.052;8.518;2022-10-19T09:44:15;18.70;99.90
37342;DHT22;58643;49.052;8.518;2022-10-19T09:46:54;17.90;99.90
37342;DHT22;58643;49.052;8.518;2022-10-19T09:49:42;17.90;99.90
37342;DHT22;58643;49.052;8.518;2022-10-19T09:52:36;19.10;99.90
37342;DHT22;58643;49.052;8.518;2022-10-19T09:57:42;18.80;99.90
37342;DHT22;58643;49.052;8.518;2022-10-19T10:00:32;18.90;99.90
37342;DHT22;58643;49.052;8.518;2022-10-19T10:02:58;18.90;99.90
37342;DHT22;58643;49.052;8.518;2022-10-19T10:05:36;20.40;99.90
37342;DHT22;58643;49.052;8.518;2022-10-19T10:08:04;19.90;99.90
37342;DHT22;58643;49.052;8.518;2022-10-19T10:10:38;20.80;99.90
37342;DHT22;58643;49.052;8.518;2022-10-19T10:13:20;21.40;99.90
37342;DHT22;58643;49.052;8.518;2022-10-19T10:15:54;22.20;99.90
37342;DHT22;58643;49.052;8.518;2022-10-19T10:18:22;22.80;99.90
37342;DHT22;58643;49.052;8.518;2022-10-19T10:20:57;22.90;99.90
37342;DHT22;58643;49.052;8.518;2022-10-19T10:23:27;22.80;99.90
37342;DHT22;58643;49.052;8.518;2022-10-19T10:25:57;21.40;99.90
37342;DHT22;58643;49.052;8.518;2022-10-19T10:28:26;20.70;99.90
37342;DHT22;58643;49.052;8.518;2022-10-19T10:31:04;20.10;99.90
37342;DHT22;58643;49.052;8.518;2022-10-19T10:33:35;20.40;99.90
37342;DHT22;58643;49.052;8.518;2022-10-19T10:36:07;20.60;99.90
37342;DHT22;58643;49.052;8.518;2022-10-19T10:38:51;20.10;99.90
37342;DHT22;58643;49.052;8.518;2022-10-19T10:41:20;20.20;99.90
37342;DHT22;58643;49.052;8.518;2022-10-19T10:44:02;19.80;99.90
37342;DHT22;58643;49.052;8.518;2022-10-19T10:46:48;19.50;99.90
37342;DHT22;58643;49.052;8.518;2022-10-19T10:49:24;19.50;99.90
37342;DHT22;58643;49.052;8.518;2022-10-19T10:51:54;19.20;99.90
37342;DHT22;58643;49.052;8.518;2022-10-19T10:54:26;19.50;99.90
37342;DHT22;58643;49.052;8.518;2022-10-19T11:02:45;19.30;99.90
37342;DHT22;58643;49.052;8.518;2022-10-19T11:13:56;20.10;99.90
37342;DHT22;58643;49.052;8.518;2022-10-19T11:16:27;19.80;99.90
37342;DHT22;58643;49.052;8.518;2022-10-19T11:19:18;20.10;99.90
37342;DHT22;58643;49.052;8.518;2022-10-19T11:22:01;20.00;99.90
37342;DHT22;58643;49.052;8.518;2022-10-19T11:28:01;19.30;99.90
